Time;durP1;ratioP1;P1;durP2;ratioP2;P2;SDS_P1;SDS_P2;PMS_P1;PMS_P2;Temp;Humidity;BMP_temperature;BMP_pressure;BME280_temperature;BME280_humidity;BME280_pressure;Samples;Min_cycle;Max_cycle;Signal;HPM_P1;HPM_P2
2023/01/26 00:00:52;;;;;;;72.28;26.45;;;0.10;99.90;;;;;;6158480;23;20072;-84
2023/01/26 00:03:18;;;;;;;67.78;26.13;;;0.10;99.90;;;;;;6156767;23;20013;-83
2023/01/26 00:05:44;;;;;;;74.40;25.20;;;0.20;99.90;;;;;;6156055;23;20385;-84
2023/01/26 00:08:11;;;;;;;60.47;24.20;;;0.10;99.90;;;;;;6133394;23;20009;-84
2023/01/26 00:10:38;;;;;;;61.63;23.08;;;0.20;99.90;;;;;;6159010;23;20024;-83
2023/01/26 00:13:04;;;;;;;65.30;24.63;;;0.20;99.90;;;;;;6134508;23;20014;-84
2023/01/26 00:15:34;;;;;;;66.65;24.27;;;0.20;99.90;;;;;;6157373;23;20024;-84
2023/01/26 00:18:01;;;;;;;74.57;26.30;;;0.20;99.90;;;;;;6161302;23;20092;-83
2023/01/26 00:20:27;;;;;;;60.45;24.98;;;0.20;99.90;;;;;;6158591;23;20042;-84
2023/01/26 00:22:53;;;;;;;67.18;24.67;;;0.20;99.90;;;;;;6160227;23;20052;-86
2023/01/26 00:25:19;;;;;;;63.78;24.23;;;0.20;99.90;;;;;;6157995;23;20017;-85
2023/01/26 00:27:44;;;;;;;65.22;24.80;;;0.20;99.90;;;;;;6135662;23;20021;-83
2023/01/26 00:30:10;;;;;;;58.25;24.58;;;0.20;99.90;;;;;;6134570;23;20025;-83
2023/01/26 00:32:36;;;;;;;63.90;24.75;;;0.20;99.90;;;;;;6160406;23;20041;-84
2023/01/26 00:35:03;;;;;;;61.90;24.75;;;0.20;99.90;;;;;;6160033;23;20018;-86
2023/01/26 00:37:29;;;;;;;67.40;25.50;;;0.20;99.90;;;;;;6129852;23;20129;-84
2023/01/26 00:39:54;;;;;;;61.45;24.90;;;0.30;99.90;;;;;;6153202;23;20045;-83
2023/01/26 00:42:21;;;;;;;63.17;25.15;;;0.20;99.90;;;;;;6157877;23;20022;-84
2023/01/26 00:44:47;;;;;;;60.50;22.88;;;0.30;99.90;;;;;;6158621;23;20010;-84
2023/01/26 00:47:13;;;;;;;68.03;25.92;;;0.30;99.90;;;;;;6159803;23;20016;-84
2023/01/26 00:49:40;;;;;;;70.45;26.25;;;0.30;99.90;;;;;;6158328;23;20021;-84
2023/01/26 00:52:05;;;;;;;72.72;24.05;;;0.30;99.90;;;;;;6160159;23;20010;-83
2023/01/26 00:54:31;;;;;;;67.00;25.27;;;0.30;99.90;;;;;;6159872;23;20121;-83
2023/01/26 00:56:56;;;;;;;65.43;25.48;;;0.30;99.90;;;;;;6158762;23;20010;-84
2023/01/26 00:59:22;;;;;;;73.50;26.40;;;0.30;99.90;;;;;;6132369;23;20530;-84
2023/01/26 01:01:48;;;;;;;57.10;24.38;;;0.30;99.90;;;;;;6133200;23;20018;-84
2023/01/26 01:04:15;;;;;;;62.15;23.17;;;0.30;99.90;;;;;;6134909;23;20018;-84
2023/01/26 01:06:41;;;;;;;62.50;23.63;;;0.30;99.90;;;;;;6131899;23;20031;-85
2023/01/26 01:09:07;;;;;;;60.83;24.55;;;0.30;99.90;;;;;;6132657;23;20017;-85
2023/01/26 01:11:33;;;;;;;59.42;23.02;;;0.30;99.90;;;;;;6130004;23;20032;-83
2023/01/26 01:13:58;;;;;;;60.78;23.58;;;0.30;99.90;;;;;;6128268;23;20028;-83
2023/01/26 01:16:24;;;;;;;51.33;21.38;;;0.30;99.90;;;;;;6153465;23;20013;-84
2023/01/26 01:18:53;;;;;;;60.47;24.75;;;0.30;99.90;;;;;;6131709;23;20018;-84
2023/01/26 01:21:21;;;;;;;50.88;22.48;;;0.30;99.90;;;;;;6131670;23;20463;-85
2023/01/26 01:23:47;;;;;;;48.33;22.85;;;0.40;99.90;;;;;;6133920;23;20013;-84
2023/01/26 01:26:14;;;;;;;56.05;22.55;;;0.30;99.90;;;;;;6132621;23;20037;-84
2023/01/26 01:28:41;;;;;;;52.88;22.48;;;0.30;99.90;;;;;;6134719;23;20010;-84
2023/01/26 01:31:09;;;;;;;54.10;22.63;;;0.40;99.90;;;;;;6157048;23;20017;-84
2023/01/26 01:33:35;;;;;;;54.47;22.15;;;0.40;99.90;;;;;;6134202;23;20346;-84
2023/01/26 01:36:03;;;;;;;52.17;22.30;;;0.40;99.90;;;;;;6132002;23;20045;-85
2023/01/26 01:38:29;;;;;;;51.72;21.33;;;0.40;99.90;;;;;;6133940;23;20065;-84
2023/01/26 01:40:55;;;;;;;54.20;21.90;;;0.30;99.90;;;;;;6133891;23;20013;-84
2023/01/26 01:43:22;;;;;;;57.22;22.25;;;0.40;99.90;;;;;;6135074;23;20438;-84
2023/01/26 01:45:48;;;;;;;51.50;21.20;;;0.40;99.90;;;;;;6130343;23;20013;-84
2023/01/26 01:48:39;;;;;;;49.13;20.90;;;0.40;99.90;;;;;;6152493;23;20040;-84
2023/01/26 01:51:13;;;;;;;49.38;19.95;;;0.40;99.90;;;;;;6130220;23;20040;-84
2023/01/26 01:53:43;;;;;;;51.80;21.73;;;0.40;99.90;;;;;;6132123;23;20033;-84
2023/01/26 01:56:20;;;;;;;52.45;22.83;;;0.40;99.90;;;;;;6155919;23;20021;-84
2023/01/26 01:58:47;;;;;;;52.88;22.25;;;0.40;99.90;;;;;;6134147;23;20421;-84
2023/01/26 02:01:13;;;;;;;51.15;21.67;;;0.50;99.90;;;;;;6131910;23;20729;-85
2023/01/26 02:03:40;;;;;;;49.83;22.02;;;0.50;99.90;;;;;;6134756;23;20024;-84
2023/01/26 02:06:17;;;;;;;54.25;21.95;;;0.40;99.90;;;;;;6132112;23;20024;-84
2023/01/26 02:08:46;;;;;;;57.30;22.38;;;0.40;99.90;;;;;;6134358;23;20022;-84
2023/01/26 02:11:23;;;;;;;58.83;22.70;;;0.50;99.90;;;;;;6132009;23;20014;-84
2023/01/26 02:13:50;;;;;;;44.80;20.45;;;0.50;99.90;;;;;;6158886;23;20060;-84
2023/01/26 02:16:16;;;;;;;49.10;20.75;;;0.50;99.90;;;;;;6131639;23;20088;-85
2023/01/26 02:18:43;;;;;;;49.28;20.80;;;0.50;99.90;;;;;;6134592;23;20010;-85
2023/01/26 02:21:13;;;;;;;52.22;21.10;;;0.70;99.90;;;;;;6152620;23;20013;-84
2023/01/26 02:23:41;;;;;;;50.35;21.00;;;0.40;99.90;;;;;;6130836;23;20041;-84
2023/01/26 02:26:10;;;;;;;52.40;22.23;;;0.50;99.90;;;;;;6154633;23;20022;-84
2023/01/26 02:28:36;;;;;;;51.83;20.35;;;0.50;99.90;;;;;;6133088;23;20697;-84
2023/01/26 02:31:02;;;;;;;49.72;21.25;;;0.50;99.90;;;;;;6132757;23;20074;-84
2023/01/26 02:33:30;;;;;;;51.70;19.60;;;0.50;99.90;;;;;;6134214;23;20033;-84
2023/01/26 02:35:56;;;;;;;56.00;21.45;;;0.50;99.90;;;;;;6132319;23;20021;-84
2023/01/26 02:38:27;;;;;;;51.17;20.63;;;0.50;99.90;;;;;;6135316;23;20018;-84
2023/01/26 02:40:54;;;;;;;56.85;20.70;;;0.50;99.90;;;;;;6135793;23;20064;-84
2023/01/26 02:43:23;;;;;;;54.78;20.30;;;0.50;99.90;;;;;;6159248;23;20025;-84
2023/01/26 02:45:49;;;;;;;60.55;20.48;;;0.50;99.90;;;;;;6133950;23;20014;-84
2023/01/26 02:49:45;;;;;;;48.92;18.42;;;0.50;99.90;;;;;;6134203;23;20073;-85
2023/01/26 02:51:00;;;;;;;43.00;18.50;;;0.60;99.90;;;;;;6159339;23;20104;-84
2023/01/26 02:53:25;;;;;;;46.85;18.35;;;0.60;99.90;;;;;;6134559;23;20547;-84
2023/01/26 02:55:51;;;;;;;43.10;18.10;;;0.60;99.90;;;;;;6126712;23;20354;-85
2023/01/26 02:58:17;;;;;;;40.78;17.23;;;0.60;99.90;;;;;;6154084;23;20120;-84
2023/01/26 03:00:42;;;;;;;43.58;16.88;;;0.60;99.90;;;;;;6127213;23;20013;-84
2023/01/26 03:03:14;;;;;;;47.05;17.00;;;0.60;99.90;;;;;;6132063;23;20469;-84
2023/01/26 03:05:41;;;;;;;45.15;17.35;;;0.60;99.90;;;;;;6133090;23;20017;-82
2023/01/26 03:08:06;;;;;;;39.90;17.05;;;0.70;99.90;;;;;;6133711;23;20024;-84
2023/01/26 03:10:33;;;;;;;36.60;15.85;;;0.60;99.90;;;;;;6133682;23;20014;-84
2023/01/26 03:12:58;;;;;;;41.35;16.73;;;0.70;99.90;;;;;;6158566;23;20018;-84
2023/01/26 03:15:42;;;;;;;39.65;16.48;;;0.70;99.90;;;;;;6133962;23;20021;-84
2023/01/26 03:29:19;;;;;;;39.20;16.10;;;0.70;99.90;;;;;;6158889;23;20088;-84
2023/01/26 03:31:46;;;;;;;44.50;15.00;;;0.80;99.90;;;;;;6136003;23;20477;-84
2023/01/26 03:34:11;;;;;;;43.33;15.30;;;0.70;99.90;;;;;;6135381;23;20017;-83
2023/01/26 03:36:37;;;;;;;42.85;15.77;;;0.80;99.90;;;;;;6160081;23;20066;-84
2023/01/26 03:41:06;;;;;;;36.70;15.35;;;0.80;99.90;;;;;;6134963;23;20332;-85
2023/01/26 03:58:21;;;;;;;39.55;15.77;;;0.80;99.90;;;;;;6159563;23;20056;-84
2023/01/26 04:00:48;;;;;;;35.95;15.13;;;0.80;99.90;;;;;;6160550;23;20009;-85
2023/01/26 04:08:45;;;;;;;32.58;14.30;;;0.80;99.90;;;;;;6161783;23;20250;-88
2023/01/26 04:11:11;;;;;;;32.75;14.43;;;0.90;99.90;;;;;;6164402;23;20470;-86
2023/01/26 04:21:49;;;;;;;33.83;15.48;;;1.30;99.90;;;;;;6163575;23;20021;-85
2023/01/26 04:24:15;;;;;;;40.95;16.85;;;0.90;99.90;;;;;;6138778;23;20081;-83
2023/01/26 04:26:42;;;;;;;36.85;14.95;;;0.90;99.90;;;;;;6132913;23;20017;-82
2023/01/26 04:29:10;;;;;;;39.72;15.60;;;0.90;99.90;;;;;;6133874;23;20017;-83
2023/01/26 04:31:36;;;;;;;35.90;15.70;;;0.90;99.90;;;;;;6162021;23;20005;-86
2023/01/26 04:34:04;;;;;;;40.00;16.67;;;0.90;99.90;;;;;;6162908;23;20474;-83
2023/01/26 04:36:29;;;;;;;38.60;15.88;;;0.90;99.90;;;;;;6137218;23;20053;-84
2023/01/26 04:38:55;;;;;;;40.47;16.02;;;1.00;99.90;;;;;;6163187;23;20006;-83
2023/01/26 04:41:22;;;;;;;40.08;16.10;;;0.90;99.90;;;;;;6162809;23;20032;-84
2023/01/26 04:43:47;;;;;;;36.20;15.50;;;1.00;99.90;;;;;;6138318;23;20017;-83
2023/01/26 04:46:13;;;;;;;40.67;16.73;;;1.00;99.90;;;;;;6163466;23;20350;-84
2023/01/26 04:48:39;;;;;;;36.38;16.17;;;1.00;99.90;;;;;;6165074;23;20013;-86
2023/01/26 04:51:08;;;;;;;36.47;15.55;;;1.00;99.90;;;;;;6162267;23;20020;-87
2023/01/26 04:53:34;;;;;;;33.67;15.68;;;1.00;99.90;;;;;;6162713;23;20014;-86
2023/01/26 04:56:00;;;;;;;43.70;16.52;;;1.00;99.90;;;;;;6161272;23;20024;-87
2023/01/26 04:58:25;;;;;;;38.10;15.60;;;1.00;99.90;;;;;;6134244;23;20005;-83
2023/01/26 05:00:53;;;;;;;37.25;16.05;;;1.00;99.90;;;;;;6131357;23;20055;-83
2023/01/26 05:03:18;;;;;;;45.78;17.25;;;1.00;99.90;;;;;;6131082;23;20047;-84
2023/01/26 05:05:48;;;;;;;41.42;16.98;;;1.00;99.90;;;;;;6158688;23;20021;-83
2023/01/26 05:08:14;;;;;;;38.47;17.05;;;1.00;99.90;;;;;;6162606;23;20085;-86
2023/01/26 05:10:39;;;;;;;36.40;15.73;;;1.00;99.90;;;;;;6164462;23;20362;-87
2023/01/26 05:13:05;;;;;;;37.70;16.83;;;1.00;99.90;;;;;;6138201;23;20096;-85
2023/01/26 05:15:31;;;;;;;39.65;18.15;;;1.10;99.90;;;;;;6132505;23;20104;-84
2023/01/26 05:17:58;;;;;;;45.03;18.38;;;1.10;99.90;;;;;;6150653;23;20017;-87
2023/01/26 05:20:24;;;;;;;39.50;17.13;;;2.40;99.90;;;;;;6161726;23;20014;-88
2023/01/26 05:22:50;;;;;;;47.30;18.75;;;1.10;99.90;;;;;;6134261;23;20028;-86
2023/01/26 05:25:16;;;;;;;41.47;17.65;;;1.10;99.90;;;;;;6157819;23;20489;-85
2023/01/26 05:27:41;;;;;;;42.92;17.98;;;1.10;99.90;;;;;;6135829;23;20263;-83
2023/01/26 05:30:07;;;;;;;43.72;19.00;;;1.10;99.90;;;;;;6134799;23;20110;-84
2023/01/26 05:32:33;;;;;;;45.15;18.95;;;1.10;99.90;;;;;;6133927;23;20472;-84
2023/01/26 05:34:59;;;;;;;48.38;19.15;;;1.10;99.90;;;;;;6128840;23;20018;-84
2023/01/26 05:37:37;;;;;;;43.58;18.00;;;1.20;99.90;;;;;;6126379;23;20010;-86
2023/01/26 05:48:12;;;;;;;35.92;15.63;;;1.50;99.90;;;;;;6154745;23;20057;-86
2023/01/26 05:50:38;;;;;;;41.00;17.05;;;1.10;99.90;;;;;;6126777;23;20017;-86
2023/01/26 05:53:03;;;;;;;48.83;19.10;;;1.20;99.90;;;;;;6155908;23;20018;-85
2023/01/26 05:55:29;;;;;;;53.08;18.63;;;1.20;99.90;;;;;;6133679;23;20030;-86
2023/01/26 05:57:54;;;;;;;40.65;17.42;;;1.10;99.90;;;;;;6159402;23;20009;-85
2023/01/26 06:00:20;;;;;;;42.10;17.77;;;1.20;99.90;;;;;;6130815;23;20099;-83
2023/01/26 06:02:46;;;;;;;42.33;18.92;;;1.20;99.90;;;;;;6160014;23;20091;-84
2023/01/26 06:05:12;;;;;;;34.60;16.10;;;1.20;99.90;;;;;;6118644;23;20021;-86
2023/01/26 06:07:37;;;;;;;36.10;18.42;;;1.30;99.90;;;;;;6107266;23;20024;-86
2023/01/26 06:10:03;;;;;;;44.13;18.40;;;1.30;99.90;;;;;;6145994;23;20013;-86
2023/01/26 06:12:34;;;;;;;46.05;17.73;;;1.30;99.90;;;;;;6146673;23;20014;-85
2023/01/26 06:15:00;;;;;;;39.10;17.73;;;1.30;99.90;;;;;;6149775;23;20097;-86
2023/01/26 06:17:26;;;;;;;47.38;17.83;;;1.40;99.90;;;;;;6157622;23;20050;-87
2023/01/26 06:19:51;;;;;;;40.50;18.23;;;1.90;99.90;;;;;;6150792;23;20009;-88
2023/01/26 06:22:17;;;;;;;38.35;16.90;;;1.30;99.90;;;;;;6122843;23;20028;-85
2023/01/26 06:24:43;;;;;;;47.55;17.65;;;2.10;99.90;;;;;;6125612;23;20098;-85
2023/01/26 06:27:15;;;;;;;35.70;17.50;;;1.30;99.90;;;;;;6155436;23;20006;-83
2023/01/26 06:29:41;;;;;;;41.60;18.33;;;1.40;99.90;;;;;;6134032;23;20013;-86
2023/01/26 06:32:10;;;;;;;45.65;19.15;;;1.40;99.90;;;;;;6160419;23;20021;-83
2023/01/26 06:34:35;;;;;;;42.95;18.00;;;1.30;99.90;;;;;;6133803;23;20480;-87
2023/01/26 06:37:01;;;;;;;51.50;17.88;;;1.40;99.90;;;;;;6161623;23;20017;-83
2023/01/26 06:39:27;;;;;;;42.90;18.27;;;1.40;99.90;;;;;;6133426;23;20096;-85
2023/01/26 06:41:52;;;;;;;40.45;17.83;;;1.40;99.90;;;;;;6134173;23;20021;-83
2023/01/26 06:44:18;;;;;;;38.03;16.80;;;1.40;99.90;;;;;;6153446;23;20061;-83
2023/01/26 06:46:43;;;;;;;41.47;17.95;;;1.40;99.90;;;;;;6130782;23;20013;-84
2023/01/26 06:49:09;;;;;;;44.58;17.40;;;1.40;99.90;;;;;;6155649;23;20017;-84
2023/01/26 06:51:46;;;;;;;38.28;17.23;;;1.40;99.90;;;;;;6158858;23;20018;-89
2023/01/26 06:54:13;;;;;;;50.40;19.65;;;1.40;99.90;;;;;;6138130;23;20076;-85
2023/01/26 06:56:57;;;;;;;49.80;20.10;;;1.40;99.90;;;;;;6160266;23;20010;-84
2023/01/26 06:59:42;;;;;;;37.10;17.40;;;1.40;99.90;;;;;;6154541;23;20020;-88
2023/01/26 07:02:17;;;;;;;42.85;17.65;;;1.40;99.90;;;;;;6152921;23;20041;-86
2023/01/26 07:04:43;;;;;;;50.22;18.30;;;1.40;99.90;;;;;;6130328;23;20017;-85
2023/01/26 07:07:24;;;;;;;38.42;17.77;;;1.40;99.90;;;;;;6156622;23;20013;-85
2023/01/26 07:09:50;;;;;;;43.17;16.85;;;1.40;99.90;;;;;;6130535;23;20083;-83
2023/01/26 07:12:17;;;;;;;51.42;20.02;;;1.50;99.90;;;;;;6133177;23;20072;-85
2023/01/26 07:18:23;;;;;;;60.97;17.67;;;1.60;99.90;;;;;;6106160;23;20047;-82
2023/01/26 07:20:48;;;;;;;44.67;18.73;;;1.50;99.90;;;;;;6150523;23;20013;-85
2023/01/26 07:23:14;;;;;;;42.78;18.05;;;1.50;99.90;;;;;;6123344;23;20101;-84
2023/01/26 07:25:43;;;;;;;31.85;15.50;;;1.40;99.90;;;;;;6124392;23;20114;-83
2023/01/26 07:28:09;;;;;;;38.60;16.30;;;1.50;99.90;;;;;;6129107;23;20014;-87
2023/01/26 07:31:19;;;;;;;43.58;16.33;;;2.50;99.90;;;;;;6139906;23;20009;-87
2023/01/26 07:33:44;;;;;;;48.08;18.05;;;1.40;99.90;;;;;;6130269;23;20075;-86
2023/01/26 07:36:10;;;;;;;39.80;16.35;;;1.40;99.90;;;;;;6124775;23;20820;-83
2023/01/26 07:38:36;;;;;;;38.08;16.38;;;1.40;99.90;;;;;;6124611;23;20017;-86
2023/01/26 07:41:09;;;;;;;38.28;17.08;;;1.50;99.90;;;;;;6124373;23;20639;-84
2023/01/26 07:43:35;;;;;;;36.83;15.70;;;1.40;99.90;;;;;;6126628;23;20025;-85
2023/01/26 07:46:01;;;;;;;40.17;16.85;;;1.50;99.90;;;;;;6124742;23;20017;-83
2023/01/26 07:48:28;;;;;;;36.78;16.85;;;1.50;99.90;;;;;;6151524;23;20414;-85
2023/01/26 07:50:57;;;;;;;36.42;15.82;;;1.50;99.90;;;;;;6127085;23;20013;-85
2023/01/26 07:53:25;;;;;;;44.47;16.40;;;1.50;99.90;;;;;;6120125;23;20075;-82
2023/01/26 07:55:50;;;;;;;42.80;16.30;;;1.40;99.90;;;;;;6145115;23;20025;-82
2023/01/26 07:58:17;;;;;;;31.17;15.27;;;1.40;99.90;;;;;;6124007;23;20023;-85
2023/01/26 08:00:45;;;;;;;37.22;15.15;;;1.40;99.90;;;;;;6148699;23;20013;-84
2023/01/26 08:03:12;;;;;;;45.80;15.65;;;1.40;99.90;;;;;;6125496;23;20013;-85
2023/01/26 08:05:38;;;;;;;44.78;18.33;;;1.50;99.90;;;;;;6124336;23;20021;-83
2023/01/26 08:08:04;;;;;;;43.22;15.43;;;1.40;99.90;;;;;;6126122;23;20024;-83
2023/01/26 08:10:32;;;;;;;48.85;16.55;;;1.40;99.90;;;;;;6125364;23;20108;-83
2023/01/26 08:13:01;;;;;;;65.70;18.85;;;1.40;99.90;;;;;;6127677;23;20013;-85
2023/01/26 08:15:28;;;;;;;33.92;15.35;;;1.40;99.90;;;;;;6125471;23;20018;-82
2023/01/26 08:17:54;;;;;;;50.33;17.85;;;1.30;99.90;;;;;;6124892;23;20025;-83
2023/01/26 08:20:20;;;;;;;57.03;17.58;;;1.30;99.90;;;;;;6127268;23;20009;-82
2023/01/26 08:22:46;;;;;;;52.75;17.17;;;1.40;99.90;;;;;;6122397;23;20870;-82
2023/01/26 08:25:50;;;;;;;46.40;16.08;;;1.40;99.90;;;;;;6126089;23;20068;-82
2023/01/26 08:33:37;;;;;;;49.28;16.52;;;1.50;99.90;;;;;;6028899;23;20558;-85
2023/01/26 08:36:38;;;;;;;39.33;14.88;;;1.60;99.90;;;;;;5992363;23;20091;-85
2023/01/26 08:39:58;;;;;;;44.33;14.57;;;1.60;99.90;;;;;;5986963;23;20078;-83
2023/01/26 08:43:41;;;;;;;39.55;14.05;;;1.70;99.90;;;;;;6028328;23;20087;-85
2023/01/26 09:15:56;;;;;;;44.50;10.68;;;2.60;99.90;;;;;;6098227;23;20119;-86
2023/01/26 09:19:27;;;;;;;40.95;10.00;;;2.60;99.90;;;;;;6124198;23;20017;-82
2023/01/26 09:27:43;;;;;;;35.95;10.48;;;2.60;99.90;;;;;;6030516;23;20022;-84
2023/01/26 09:31:11;;;;;;;43.17;10.70;;;3.00;99.90;;;;;;5936435;24;20035;-83
2023/01/26 09:34:19;;;;;;;47.22;10.05;;;3.00;99.90;;;;;;5955546;24;20023;-82
2023/01/26 09:44:51;;;;;;;43.45;9.10;;;3.30;99.90;;;;;;5978811;23;20051;-87
2023/01/26 09:54:40;;;;;;;37.70;7.63;;;3.40;99.90;;;;;;6140786;23;20036;-82
2023/01/26 09:57:13;;;;;;;32.35;7.10;;;3.70;99.90;;;;;;6122955;23;20021;-84
2023/01/26 10:00:27;;;;;;;42.63;9.05;;;3.80;99.90;;;;;;6148278;23;20021;-83
2023/01/26 10:03:45;;;;;;;34.25;5.88;;;3.70;99.90;;;;;;6149595;23;20017;-82
2023/01/26 10:14:54;;;;;;;35.10;5.68;;;4.30;99.90;;;;;;6031438;23;20210;-84
2023/01/26 10:18:08;;;;;;;35.63;4.95;;;4.50;99.90;;;;;;6009516;23;20023;-82
2023/01/26 10:22:07;;;;;;;31.80;4.85;;;4.60;99.90;;;;;;6016525;23;20027;-82
2023/01/26 10:32:36;;;;;;;35.35;5.93;;;4.70;99.90;;;;;;6029456;23;20063;-84
2023/01/26 10:44:11;;;;;;;29.30;3.95;;;5.80;99.90;;;;;;6006735;23;20047;-83
2023/01/26 10:47:20;;;;;;;33.60;5.13;;;6.00;99.90;;;;;;6020073;23;20114;-82
2023/01/26 10:49:47;;;;;;;34.65;4.72;;;6.10;99.90;;;;;;6071716;23;20013;-83
2023/01/26 10:52:28;;;;;;;33.50;4.38;;;7.50;99.90;;;;;;6069168;23;20018;-80
2023/01/26 10:55:59;;;;;;;38.83;6.00;;;6.20;99.90;;;;;;6118653;23;20102;-82
2023/01/26 11:02:49;;;;;;;25.90;4.30;;;6.50;99.90;;;;;;5971173;23;20124;-86
2023/01/26 11:05:27;;;;;;;26.80;3.47;;;6.70;99.90;;;;;;6090824;23;20028;-82
2023/01/26 11:08:43;;;;;;;24.65;3.53;;;6.90;99.90;;;;;;6126976;23;20018;-84
2023/01/26 11:12:03;;;;;;;33.28;4.28;;;7.00;99.90;;;;;;6126950;23;20018;-87
2023/01/26 11:15:22;;;;;;;29.13;4.15;;;7.30;99.90;;;;;;6130522;23;20030;-89
2023/01/26 11:18:45;;;;;;;27.65;4.68;;;6.70;99.90;;;;;;6133467;23;20035;-84
2023/01/26 11:21:26;;;;;;;25.55;3.85;;;7.80;99.90;;;;;;6122163;23;20549;-83
2023/01/26 11:24:01;;;;;;;25.83;4.05;;;8.10;99.90;;;;;;6119876;23;20025;-83
2023/01/26 11:26:40;;;;;;;26.20;5.45;;;8.20;99.90;;;;;;6123436;23;20021;-83
2023/01/26 11:29:18;;;;;;;20.80;3.35;;;8.30;99.90;;;;;;6123038;23;20021;-86
2023/01/26 11:32:11;;;;;;;27.27;4.47;;;8.40;99.90;;;;;;6127823;23;20022;-85
2023/01/26 11:34:55;;;;;;;15.18;2.50;;;8.50;99.90;;;;;;6124841;23;20084;-84
2023/01/26 11:37:42;;;;;;;17.00;2.92;;;8.80;99.90;;;;;;6122526;23;20041;-83
2023/01/26 11:40:26;;;;;;;20.40;3.47;;;8.90;99.90;;;;;;6152214;23;20041;-84
2023/01/26 11:42:55;;;;;;;15.85;3.22;;;9.10;99.90;;;;;;6151454;23;20104;-86
2023/01/26 11:46:05;;;;;;;20.20;3.03;;;9.30;99.90;;;;;;6131527;23;20017;-86
2023/01/26 11:49:03;;;;;;;16.85;2.47;;;9.50;99.90;;;;;;6009481;23;20030;-83
2023/01/26 11:51:38;;;;;;;16.83;3.15;;;9.70;99.90;;;;;;6154583;23;20017;-85
2023/01/26 11:54:13;;;;;;;19.30;3.28;;;9.90;99.90;;;;;;6152362;23;20013;-81
2023/01/26 11:56:44;;;;;;;15.37;2.80;;;10.10;99.90;;;;;;6121989;23;20017;-82
2023/01/26 11:59:16;;;;;;;27.48;3.58;;;10.30;99.90;;;;;;6126038;23;20252;-84
2023/01/26 12:02:02;;;;;;;14.32;2.83;;;10.40;99.90;;;;;;6129262;23;20014;-81
2023/01/26 12:04:34;;;;;;;18.25;2.80;;;10.50;99.90;;;;;;6161677;23;20010;-84
2023/01/26 12:07:10;;;;;;;19.83;3.25;;;10.40;99.90;;;;;;6159197;23;20462;-84
2023/01/26 12:09:42;;;;;;;17.52;2.90;;;10.50;99.90;;;;;;6135410;23;20016;-81
2023/01/26 12:12:22;;;;;;;19.83;4.00;;;10.50;99.90;;;;;;6161207;23;20018;-82
2023/01/26 12:14:54;;;;;;;18.08;2.78;;;10.50;99.90;;;;;;6134619;23;20017;-82
2023/01/26 12:17:29;;;;;;;15.73;2.72;;;10.50;99.90;;;;;;6136708;23;20041;-84
2023/01/26 12:20:20;;;;;;;11.93;2.33;;;10.60;99.90;;;;;;6136152;23;20025;-82
2023/01/26 12:22:55;;;;;;;11.02;2.28;;;10.60;99.90;;;;;;6133200;23;20028;-85
2023/01/26 12:25:35;;;;;;;17.23;3.10;;;10.50;99.90;;;;;;6138538;23;20068;-85
2023/01/26 12:28:21;;;;;;;16.15;2.05;;;10.50;99.90;;;;;;6154603;23;20051;-84
2023/01/26 12:30:57;;;;;;;13.93;2.20;;;10.30;99.90;;;;;;6129284;23;20096;-81
2023/01/26 12:33:24;;;;;;;17.27;3.13;;;10.10;99.90;;;;;;6133340;23;20017;-85
2023/01/26 12:36:07;;;;;;;13.68;2.08;;;10.00;99.90;;;;;;6132715;23;20013;-84
2023/01/26 12:38:35;;;;;;;10.70;1.55;;;9.80;99.90;;;;;;6157507;23;20009;-87
2023/01/26 12:41:04;;;;;;;13.05;1.80;;;9.70;99.90;;;;;;6132157;23;20056;-83
2023/01/26 12:43:51;;;;;;;12.52;2.85;;;9.50;99.90;;;;;;6156143;23;20711;-83
2023/01/26 12:46:20;;;;;;;10.35;1.65;;;9.40;99.90;;;;;;6156948;23;20018;-82
2023/01/26 12:49:18;;;;;;;9.65;2.22;;;9.30;99.90;;;;;;6132264;23;20505;-82
2023/01/26 12:51:52;;;;;;;14.00;2.38;;;9.00;99.90;;;;;;6105183;23;20033;-84
2023/01/26 12:54:36;;;;;;;11.60;2.20;;;9.00;99.90;;;;;;6126487;23;20485;-83
2023/01/26 12:57:08;;;;;;;14.38;2.90;;;8.90;99.90;;;;;;6123364;23;20084;-85
2023/01/26 12:59:37;;;;;;;15.35;1.60;;;8.70;99.90;;;;;;6127708;23;20014;-81
2023/01/26 13:02:15;;;;;;;16.08;3.85;;;8.70;99.90;;;;;;6151729;23;20084;-83
2023/01/26 13:04:42;;;;;;;17.45;2.15;;;8.70;99.90;;;;;;6125157;23;20128;-81
2023/01/26 13:07:35;;;;;;;20.92;2.05;;;8.70;99.90;;;;;;6125975;23;20025;-87
2023/01/26 13:10:28;;;;;;;18.02;2.45;;;8.70;99.90;;;;;;6128840;23;20021;-82
2023/01/26 13:12:56;;;;;;;16.60;2.22;;;8.60;99.90;;;;;;6123012;23;20047;-83
2023/01/26 13:15:30;;;;;;;17.95;2.90;;;8.60;99.90;;;;;;6128180;23;20066;-81
2023/01/26 13:18:01;;;;;;;13.48;2.38;;;8.60;99.90;;;;;;6154075;23;20331;-83
2023/01/26 13:20:38;;;;;;;13.13;2.03;;;8.50;99.90;;;;;;6152043;23;20320;-87
2023/01/26 13:23:27;;;;;;;14.60;3.17;;;8.40;99.90;;;;;;6128004;23;20017;-83
2023/01/26 13:26:15;;;;;;;10.05;2.30;;;8.40;99.90;;;;;;6150781;23;20045;-82
2023/01/26 13:28:41;;;;;;;15.73;2.80;;;8.30;99.90;;;;;;6149757;23;20411;-81
2023/01/26 13:31:08;;;;;;;14.43;1.73;;;8.30;99.90;;;;;;6150718;23;20028;-87
2023/01/26 13:33:34;;;;;;;12.88;1.85;;;8.30;99.90;;;;;;6125725;23;20040;-81
2023/01/26 13:36:04;;;;;;;12.63;1.33;;;8.30;99.90;;;;;;6149522;23;20029;-81
2023/01/26 13:38:46;;;;;;;9.20;1.30;;;8.30;99.90;;;;;;6146812;23;20500;-84
2023/01/26 13:41:19;;;;;;;9.60;1.38;;;8.20;99.90;;;;;;6149738;23;20017;-81
2023/01/26 13:44:11;;;;;;;11.48;2.33;;;8.20;99.90;;;;;;6151822;23;20116;-85
2023/01/26 13:46:52;;;;;;;8.70;1.90;;;8.20;99.90;;;;;;6128216;23;20017;-86
2023/01/26 13:49:32;;;;;;;9.15;1.00;;;8.10;99.90;;;;;;6150997;23;20404;-82
2023/01/26 13:51:58;;;;;;;9.00;1.08;;;8.10;99.90;;;;;;6126423;23;20430;-82
2023/01/26 13:54:25;;;;;;;9.55;1.48;;;8.00;99.90;;;;;;6152643;23;20013;-83
2023/01/26 13:57:06;;;;;;;12.88;2.58;;;8.00;99.90;;;;;;6152710;23;20509;-84
2023/01/26 13:59:32;;;;;;;11.48;1.42;;;8.00;99.90;;;;;;6126320;23;20548;-87
2023/01/26 14:01:58;;;;;;;10.73;1.30;;;7.90;99.90;;;;;;6127093;23;20020;-83
2023/01/26 14:04:26;;;;;;;10.48;1.27;;;7.90;99.90;;;;;;6126088;23;20064;-82
2023/01/26 14:07:08;;;;;;;12.10;1.40;;;7.80;99.90;;;;;;6145493;23;20298;-85
2023/01/26 14:09:44;;;;;;;13.65;1.38;;;7.80;99.90;;;;;;6114575;23;20520;-85
2023/01/26 14:12:20;;;;;;;10.30;2.20;;;7.80;99.90;;;;;;6120863;23;20014;-85
2023/01/26 14:14:47;;;;;;;9.30;1.20;;;7.70;99.90;;;;;;6118115;23;20142;-85
2023/01/26 14:17:35;;;;;;;9.07;1.02;;;7.70;99.90;;;;;;6119283;23;20023;-82
2023/01/26 14:20:15;;;;;;;11.73;1.92;;;7.60;99.90;;;;;;6124107;23;20060;-84
2023/01/26 14:22:41;;;;;;;11.40;1.80;;;7.60;99.90;;;;;;6150493;23;20055;-82
2023/01/26 14:25:09;;;;;;;9.60;1.65;;;7.60;99.90;;;;;;6150340;23;20021;-84
2023/01/26 14:27:36;;;;;;;12.05;1.48;;;7.60;99.90;;;;;;6125819;23;20013;-82
2023/01/26 14:30:23;;;;;;;7.43;1.23;;;7.60;99.90;;;;;;6123989;23;20021;-80
2023/01/26 14:32:57;;;;;;;6.03;0.80;;;7.50;99.90;;;;;;6149762;23;20024;-80
2023/01/26 14:35:23;;;;;;;8.75;0.82;;;7.50;99.90;;;;;;6122960;23;20104;-81
2023/01/26 14:37:49;;;;;;;10.05;1.15;;;7.50;99.90;;;;;;6149587;23;20057;-86
2023/01/26 14:40:23;;;;;;;8.38;1.30;;;7.40;99.90;;;;;;6146255;23;20520;-84
2023/01/26 14:42:51;;;;;;;12.52;1.92;;;7.40;99.90;;;;;;6123412;23;20023;-86
2023/01/26 14:45:22;;;;;;;9.90;1.33;;;7.40;99.90;;;;;;6124413;23;20018;-87
2023/01/26 14:47:48;;;;;;;9.85;1.23;;;7.40;99.90;;;;;;6119641;23;20112;-84
2023/01/26 14:50:22;;;;;;;10.95;1.60;;;7.40;99.90;;;;;;6118377;23;20045;-84
2023/01/26 14:52:48;;;;;;;5.57;0.82;;;7.30;99.90;;;;;;6144550;23;20459;-84
2023/01/26 14:55:32;;;;;;;8.93;1.13;;;8.00;99.90;;;;;;6119340;23;20120;-84
2023/01/26 14:58:01;;;;;;;9.95;1.02;;;7.30;99.90;;;;;;6119629;23;20017;-86
2023/01/26 15:00:31;;;;;;;5.90;1.25;;;7.30;99.90;;;;;;6148657;23;20017;-84
2023/01/26 15:03:03;;;;;;;10.35;1.60;;;7.30;99.90;;;;;;6145096;23;20024;-85
2023/01/26 15:05:35;;;;;;;8.38;1.33;;;7.20;99.90;;;;;;6119238;23;20060;-85
2023/01/26 15:08:05;;;;;;;9.07;1.15;;;7.30;99.90;;;;;;6145921;23;20679;-85
2023/01/26 15:10:42;;;;;;;13.77;1.48;;;7.20;99.90;;;;;;6121830;23;20768;-84
2023/01/26 15:13:14;;;;;;;9.10;1.38;;;7.20;99.90;;;;;;6148782;23;20009;-85
2023/01/26 15:15:47;;;;;;;7.65;1.05;;;7.20;99.90;;;;;;6147520;23;20014;-84
2023/01/26 15:18:13;;;;;;;8.73;1.63;;;7.10;99.90;;;;;;6123166;23;20025;-84
2023/01/26 15:21:05;;;;;;;16.05;1.35;;;7.20;99.90;;;;;;6122015;23;20014;-84
2023/01/26 15:23:35;;;;;;;8.85;1.50;;;7.20;99.90;;;;;;6143306;23;20076;-84
2023/01/26 15:26:13;;;;;;;9.05;1.10;;;7.10;99.90;;;;;;6120204;23;20057;-86
2023/01/26 15:28:40;;;;;;;14.15;2.17;;;7.10;99.90;;;;;;6146990;23;20009;-84
2023/01/26 15:31:06;;;;;;;13.63;1.88;;;7.10;99.90;;;;;;6123347;23;20017;-85